sensor_id;sensor_type;location;lat;lon;timestamp;pressure;altitude;pressure_sealevel;temperature;humidity
29197;BME280;62796;42.654;23.316;2023-01-28T00:01:11;93928.69;;;3.39;57.59
29197;BME280;62796;42.654;23.316;2023-01-28T00:03:37;93922.00;;;3.40;58.09
29197;BME280;62796;42.654;23.316;2023-01-28T00:06:13;93914.09;;;3.42;57.85
29197;BME280;62796;42.654;23.316;2023-01-28T00:08:39;93931.28;;;3.52;57.49
29197;BME280;62796;42.654;23.316;2023-01-28T00:11:06;93931.31;;;3.61;56.83
29197;BME280;62796;42.654;23.316;2023-01-28T00:13:33;93934.19;;;3.66;56.86
29197;BME280;62796;42.654;23.316;2023-01-28T00:16:01;93947.28;;;3.71;56.59
29197;BME280;62796;42.654;23.316;2023-01-28T00:18:28;93944.25;;;3.69;56.68
29197;BME280;62796;42.654;23.316;2023-01-28T00:21:02;93951.84;;;3.65;56.18
29197;BME280;62796;42.654;23.316;2023-01-28T00:23:28;93954.88;;;3.58;56.23
29197;BME280;62796;42.654;23.316;2023-01-28T00:25:57;93947.88;;;3.57;56.68
29197;BME280;62796;42.654;23.316;2023-01-28T00:28:23;93953.50;;;3.54;56.75
29197;BME280;62796;42.654;23.316;2023-01-28T00:30:49;93952.59;;;3.57;56.49
29197;BME280;62796;42.654;23.316;2023-01-28T00:33:14;93946.34;;;3.56;56.71
29197;BME280;62796;42.654;23.316;2023-01-28T00:35:40;93955.47;;;3.62;56.43
29197;BME280;62796;42.654;23.316;2023-01-28T00:38:05;93959.44;;;3.52;56.22
29197;BME280;62796;42.654;23.316;2023-01-28T00:40:30;93961.41;;;3.52;56.11
29197;BME280;62796;42.654;23.316;2023-01-28T00:42:56;93956.53;;;3.56;56.01
29197;BME280;62796;42.654;23.316;2023-01-28T00:45:21;93962.94;;;3.62;56.15
29197;BME280;62796;42.654;23.316;2023-01-28T00:47:47;93954.25;;;3.54;56.30
29197;BME280;62796;42.654;23.316;2023-01-28T00:50:13;93970.69;;;3.54;56.70
29197;BME280;62796;42.654;23.316;2023-01-28T00:52:39;93968.88;;;3.60;56.68
29197;BME280;62796;42.654;23.316;2023-01-28T00:55:05;93971.91;;;3.62;56.82
29197;BME280;62796;42.654;23.316;2023-01-28T00:57:31;93970.09;;;3.68;56.00
29197;BME280;62796;42.654;23.316;2023-01-28T00:59:56;93956.06;;;3.48;56.35
29197;BME280;62796;42.654;23.316;2023-01-28T01:02:22;93967.97;;;3.63;56.10
29197;BME280;62796;42.654;23.316;2023-01-28T01:04:47;93977.41;;;3.71;56.03
29197;BME280;62796;42.654;23.316;2023-01-28T01:07:27;93964.31;;;3.66;55.76
29197;BME280;62796;42.654;23.316;2023-01-28T01:10:10;93968.56;;;3.49;56.41
29197;BME280;62796;42.654;23.316;2023-01-28T01:12:37;93959.41;;;3.43;56.34
29197;BME280;62796;42.654;23.316;2023-01-28T01:15:04;93968.25;;;3.56;56.01
29197;BME280;62796;42.654;23.316;2023-01-28T01:17:33;93974.06;;;3.67;56.22
29197;BME280;62796;42.654;23.316;2023-01-28T01:20:02;93963.13;;;3.67;55.37
29197;BME280;62796;42.654;23.316;2023-01-28T01:22:28;93976.50;;;3.74;55.38
29197;BME280;62796;42.654;23.316;2023-01-28T01:24:55;93976.19;;;3.63;55.89
29197;BME280;62796;42.654;23.316;2023-01-28T01:27:20;93978.00;;;3.66;55.96
29197;BME280;62796;42.654;23.316;2023-01-28T01:29:46;93967.66;;;3.70;55.90
29197;BME280;62796;42.654;23.316;2023-01-28T01:32:11;93981.34;;;3.52;55.88
29197;BME280;62796;42.654;23.316;2023-01-28T01:34:37;93972.97;;;3.56;56.04
29197;BME280;62796;42.654;23.316;2023-01-28T01:37:02;93977.06;;;3.51;55.78
29197;BME280;62796;42.654;23.316;2023-01-28T01:39:30;93977.06;;;3.51;56.55
29197;BME280;62796;42.654;23.316;2023-01-28T01:41:55;93982.50;;;3.33;56.45
29197;BME280;62796;42.654;23.316;2023-01-28T01:48:10;93983.53;;;3.26;57.01
29197;BME280;62796;42.654;23.316;2023-01-28T01:52:42;93986.03;;;3.43;56.57
29197;BME280;62796;42.654;23.316;2023-01-28T01:55:13;93975.22;;;3.39;56.64
29197;BME280;62796;42.654;23.316;2023-01-28T01:57:41;93983.41;;;3.30;57.03
29197;BME280;62796;42.654;23.316;2023-01-28T02:00:08;93988.88;;;3.30;56.77
29197;BME280;62796;42.654;23.316;2023-01-28T02:02:37;93989.13;;;3.14;57.75
29197;BME280;62796;42.654;23.316;2023-01-28T02:05:04;93988.25;;;3.26;57.14
29197;BME280;62796;42.654;23.316;2023-01-28T02:07:30;93989.63;;;3.30;56.79
29197;BME280;62796;42.654;23.316;2023-01-28T02:09:55;93975.66;;;3.28;56.92
29197;BME280;62796;42.654;23.316;2023-01-28T02:12:29;93989.78;;;3.27;57.12
29197;BME280;62796;42.654;23.316;2023-01-28T02:15:02;93991.78;;;3.35;56.96
29197;BME280;62796;42.654;23.316;2023-01-28T02:17:29;93992.97;;;3.25;56.76
29197;BME280;62796;42.654;23.316;2023-01-28T02:20:01;93993.25;;;3.18;57.08
29197;BME280;62796;42.654;23.316;2023-01-28T02:31:19;93995.78;;;3.04;57.30
29197;BME280;62796;42.654;23.316;2023-01-28T02:34:05;93997.28;;;3.05;57.10
29197;BME280;62796;42.654;23.316;2023-01-28T02:39:28;93971.75;;;2.68;58.04
29197;BME280;62796;42.654;23.316;2023-01-28T02:42:05;93999.47;;;2.79;57.99
29197;BME280;62796;42.654;23.316;2023-01-28T02:44:32;93998.44;;;2.86;57.99
29197;BME280;62796;42.654;23.316;2023-01-28T02:46:57;94004.00;;;3.04;57.30
29197;BME280;62796;42.654;23.316;2023-01-28T02:49:52;94004.31;;;3.15;57.14
29197;BME280;62796;42.654;23.316;2023-01-28T02:52:47;94005.56;;;3.23;57.55
29197;BME280;62796;42.654;23.316;2023-01-28T02:55:57;94002.53;;;3.21;56.78
29197;BME280;62796;42.654;23.316;2023-01-28T03:04:01;94005.94;;;3.34;56.43
29197;BME280;62796;42.654;23.316;2023-01-28T03:06:31;94003.72;;;3.20;56.64
29197;BME280;62796;42.654;23.316;2023-01-28T03:09:02;94005.91;;;3.25;56.60
29197;BME280;62796;42.654;23.316;2023-01-28T03:12:11;94006.34;;;3.23;57.17
29197;BME280;62796;42.654;23.316;2023-01-28T03:15:05;94011.69;;;3.27;56.92
29197;BME280;62796;42.654;23.316;2023-01-28T03:20:49;94012.50;;;3.06;57.03
29197;BME280;62796;42.654;23.316;2023-01-28T03:23:53;94010.69;;;3.12;57.00
29197;BME280;62796;42.654;23.316;2023-01-28T03:27:11;94009.66;;;3.18;56.99
29197;BME280;62796;42.654;23.316;2023-01-28T03:29:59;94006.94;;;3.18;57.18
29197;BME280;62796;42.654;23.316;2023-01-28T03:32:45;94015.91;;;3.19;57.20
29197;BME280;62796;42.654;23.316;2023-01-28T03:35:32;94009.81;;;3.15;56.94
29197;BME280;62796;42.654;23.316;2023-01-28T03:38:18;94014.38;;;3.18;57.32
29197;BME280;62796;42.654;23.316;2023-01-28T03:40:58;94016.22;;;3.21;56.86
29197;BME280;62796;42.654;23.316;2023-01-28T03:43:30;94020.78;;;3.24;56.65
29197;BME280;62796;42.654;23.316;2023-01-28T03:45:56;94021.69;;;3.21;56.79
29197;BME280;62796;42.654;23.316;2023-01-28T03:48:25;94019.09;;;3.17;56.57
29197;BME280;62796;42.654;23.316;2023-01-28T03:50:52;94021.69;;;3.21;56.43
29197;BME280;62796;42.654;23.316;2023-01-28T03:53:19;94029.97;;;3.08;56.32
29197;BME280;62796;42.654;23.316;2023-01-28T03:55:46;94021.00;;;3.08;56.87
29197;BME280;62796;42.654;23.316;2023-01-28T03:58:13;94025.31;;;3.18;56.85
29197;BME280;62796;42.654;23.316;2023-01-28T04:00:39;94023.78;;;3.17;56.75
29197;BME280;62796;42.654;23.316;2023-01-28T04:03:12;94023.22;;;3.22;56.90
29197;BME280;62796;42.654;23.316;2023-01-28T04:05:55;94023.03;;;3.16;56.02
29197;BME280;62796;42.654;23.316;2023-01-28T04:08:22;94034.78;;;3.26;56.43
29197;BME280;62796;42.654;23.316;2023-01-28T04:10:47;94029.25;;;3.17;55.83
29197;BME280;62796;42.654;23.316;2023-01-28T04:13:13;94032.59;;;3.12;55.65
29197;BME280;62796;42.654;23.316;2023-01-28T04:15:38;94033.50;;;3.09;56.05
29197;BME280;62796;42.654;23.316;2023-01-28T04:18:04;94037.28;;;3.11;56.20
29197;BME280;62796;42.654;23.316;2023-01-28T04:20:30;94038.53;;;3.10;56.39
29197;BME280;62796;42.654;23.316;2023-01-28T04:22:56;94037.75;;;3.10;55.96
29197;BME280;62796;42.654;23.316;2023-01-28T04:25:21;94043.50;;;3.03;56.35
29197;BME280;62796;42.654;23.316;2023-01-28T04:27:46;94039.94;;;2.93;56.67
29197;BME280;62796;42.654;23.316;2023-01-28T04:30:12;94047.84;;;2.91;56.90
29197;BME280;62796;42.654;23.316;2023-01-28T04:32:37;94035.69;;;2.92;56.41
29197;BME280;62796;42.654;23.316;2023-01-28T04:35:03;94042.19;;;2.86;56.70
29197;BME280;62796;42.654;23.316;2023-01-28T04:37:28;94051.94;;;2.96;57.06
29197;BME280;62796;42.654;23.316;2023-01-28T04:39:54;94049.56;;;2.98;57.15
29197;BME280;62796;42.654;23.316;2023-01-28T04:42:19;94060.03;;;2.99;56.95
29197;BME280;62796;42.654;23.316;2023-01-28T04:44:44;94064.59;;;3.02;57.11
29197;BME280;62796;42.654;23.316;2023-01-28T04:47:10;94070.25;;;3.08;57.42
29197;BME280;62796;42.654;23.316;2023-01-28T04:49:35;94067.22;;;3.06;57.16
29197;BME280;62796;42.654;23.316;2023-01-28T04:52:01;94063.06;;;2.92;57.02
29197;BME280;62796;42.654;23.316;2023-01-28T04:54:26;94061.34;;;2.86;57.68
29197;BME280;62796;42.654;23.316;2023-01-28T04:56:51;94079.94;;;3.00;58.13
29197;BME280;62796;42.654;23.316;2023-01-28T04:59:17;94075.13;;;3.04;58.25
29197;BME280;62796;42.654;23.316;2023-01-28T05:01:44;94080.53;;;2.95;57.80
29197;BME280;62796;42.654;23.316;2023-01-28T05:04:09;94075.25;;;3.00;58.06
29197;BME280;62796;42.654;23.316;2023-01-28T05:06:34;94086.59;;;2.90;58.08
29197;BME280;62796;42.654;23.316;2023-01-28T05:09:00;94085.88;;;2.98;57.61
29197;BME280;62796;42.654;23.316;2023-01-28T05:11:25;94084.53;;;3.03;57.29
29197;BME280;62796;42.654;23.316;2023-01-28T05:13:51;94087.84;;;2.98;58.01
29197;BME280;62796;42.654;23.316;2023-01-28T05:16:16;94092.06;;;2.90;58.02
29197;BME280;62796;42.654;23.316;2023-01-28T05:18:42;94092.31;;;2.83;57.85
29197;BME280;62796;42.654;23.316;2023-01-28T05:21:08;94090.66;;;2.85;57.88
29197;BME280;62796;42.654;23.316;2023-01-28T05:23:33;94088.88;;;2.91;57.34
29197;BME280;62796;42.654;23.316;2023-01-28T05:25:59;94091.41;;;2.42;58.40
29197;BME280;62796;42.654;23.316;2023-01-28T05:28:24;94101.78;;;2.69;58.00
29197;BME280;62796;42.654;23.316;2023-01-28T05:30:49;94098.72;;;2.67;57.70
29197;BME280;62796;42.654;23.316;2023-01-28T05:33:15;94097.78;;;2.83;57.29
29197;BME280;62796;42.654;23.316;2023-01-28T05:35:41;94107.44;;;2.96;56.84
29197;BME280;62796;42.654;23.316;2023-01-28T05:38:07;94105.03;;;2.98;56.55
29197;BME280;62796;42.654;23.316;2023-01-28T05:40:32;94110.34;;;3.02;56.24
29197;BME280;62796;42.654;23.316;2023-01-28T05:42:58;94111.75;;;3.06;56.07
29197;BME280;62796;42.654;23.316;2023-01-28T05:45:23;94118.00;;;3.07;56.39
29197;BME280;62796;42.654;23.316;2023-01-28T05:47:49;94117.47;;;2.99;56.46
29197;BME280;62796;42.654;23.316;2023-01-28T05:50:14;94108.13;;;2.88;56.57
29197;BME280;62796;42.654;23.316;2023-01-28T05:52:40;94109.31;;;3.08;56.14
29197;BME280;62796;42.654;23.316;2023-01-28T05:55:06;94111.63;;;3.10;56.27
29197;BME280;62796;42.654;23.316;2023-01-28T05:57:32;94114.69;;;3.12;56.26
29197;BME280;62796;42.654;23.316;2023-01-28T05:59:57;94115.31;;;3.16;55.43
29197;BME280;62796;42.654;23.316;2023-01-28T06:02:22;94116.81;;;3.17;55.66
29197;BME280;62796;42.654;23.316;2023-01-28T06:04:48;94122.88;;;3.12;55.22
29197;BME280;62796;42.654;23.316;2023-01-28T06:07:13;94122.56;;;3.10;55.36
29197;BME280;62796;42.654;23.316;2023-01-28T06:09:43;94122.34;;;2.73;56.60
29197;BME280;62796;42.654;23.316;2023-01-28T06:12:09;94135.25;;;2.95;56.33
29197;BME280;62796;42.654;23.316;2023-01-28T06:14:34;94143.19;;;3.02;56.50
29197;BME280;62796;42.654;23.316;2023-01-28T06:16:59;94130.25;;;3.02;56.13
29197;BME280;62796;42.654;23.316;2023-01-28T06:19:25;94153.09;;;3.08;55.48
29197;BME280;62796;42.654;23.316;2023-01-28T06:21:50;94151.91;;;3.09;55.90
29197;BME280;62796;42.654;23.316;2023-01-28T06:24:16;94158.44;;;3.12;56.41
29197;BME280;62796;42.654;23.316;2023-01-28T06:26:41;94163.16;;;3.11;56.11
29197;BME280;62796;42.654;23.316;2023-01-28T06:29:07;94157.88;;;3.17;55.52
29197;BME280;62796;42.654;23.316;2023-01-28T06:31:32;94164.94;;;3.05;56.29
29197;BME280;62796;42.654;23.316;2023-01-28T06:33:58;94171.56;;;3.17;55.75
29197;BME280;62796;42.654;23.316;2023-01-28T06:36:23;94170.09;;;3.25;55.40
29197;BME280;62796;42.654;23.316;2023-01-28T06:38:49;94174.56;;;3.31;55.71
29197;BME280;62796;42.654;23.316;2023-01-28T06:41:14;94177.19;;;3.44;55.34
29197;BME280;62796;42.654;23.316;2023-01-28T06:43:39;94182.72;;;3.53;54.90
29197;BME280;62796;42.654;23.316;2023-01-28T06:46:05;94172.94;;;3.43;54.75
29197;BME280;62796;42.654;23.316;2023-01-28T06:48:30;94177.66;;;3.43;55.14
29197;BME280;62796;42.654;23.316;2023-01-28T06:50:56;94185.16;;;3.51;55.19
29197;BME280;62796;42.654;23.316;2023-01-28T06:53:21;94186.81;;;3.49;54.84
29197;BME280;62796;42.654;23.316;2023-01-28T06:55:47;94191.06;;;3.50;55.10
29197;BME280;62796;42.654;23.316;2023-01-28T06:58:12;94204.25;;;2.99;56.80
29197;BME280;62796;42.654;23.316;2023-01-28T07:00:38;94203.13;;;3.09;56.04
29197;BME280;62796;42.654;23.316;2023-01-28T07:03:04;94210.44;;;3.12;56.19
29197;BME280;62796;42.654;23.316;2023-01-28T07:05:29;94203.97;;;3.18;56.20
29197;BME280;62796;42.654;23.316;2023-01-28T07:07:55;94207.78;;;3.21;55.60
29197;BME280;62796;42.654;23.316;2023-01-28T07:10:20;94218.41;;;3.19;56.14
29197;BME280;62796;42.654;23.316;2023-01-28T07:12:46;94215.63;;;3.31;55.58
29197;BME280;62796;42.654;23.316;2023-01-28T07:15:12;94219.53;;;3.30;55.91
29197;BME280;62796;42.654;23.316;2023-01-28T07:17:42;94218.91;;;3.26;55.99
29197;BME280;62796;42.654;23.316;2023-01-28T07:20:10;94230.72;;;3.02;55.83
29197;BME280;62796;42.654;23.316;2023-01-28T07:22:37;94214.56;;;2.95;56.61
29197;BME280;62796;42.654;23.316;2023-01-28T07:25:05;94231.50;;;3.02;56.18
29197;BME280;62796;42.654;23.316;2023-01-28T07:27:31;94241.38;;;2.53;57.68
29197;BME280;62796;42.654;23.316;2023-01-28T07:29:56;94245.06;;;2.71;57.43
29197;BME280;62796;42.654;23.316;2023-01-28T07:32:21;94235.91;;;2.87;57.29
29197;BME280;62796;42.654;23.316;2023-01-28T07:34:47;94247.13;;;3.02;56.73
29197;BME280;62796;42.654;23.316;2023-01-28T07:37:13;94247.03;;;3.05;56.27
29197;BME280;62796;42.654;23.316;2023-01-28T07:39:39;94243.59;;;2.92;56.43
29197;BME280;62796;42.654;23.316;2023-01-28T07:42:04;94244.09;;;3.00;56.33
29197;BME280;62796;42.654;23.316;2023-01-28T07:44:30;94241.13;;;3.07;56.09
29197;BME280;62796;42.654;23.316;2023-01-28T07:46:56;94253.97;;;3.19;55.94
29197;BME280;62796;42.654;23.316;2023-01-28T07:49:21;94253.22;;;2.84;56.71
29197;BME280;62796;42.654;23.316;2023-01-28T07:51:46;94252.28;;;3.00;56.75
29197;BME280;62796;42.654;23.316;2023-01-28T07:54:14;94264.84;;;3.10;55.80
29197;BME280;62796;42.654;23.316;2023-01-28T07:56:40;94257.59;;;3.16;55.93
29197;BME280;62796;42.654;23.316;2023-01-28T07:59:05;94258.88;;;3.24;56.14
29197;BME280;62796;42.654;23.316;2023-01-28T08:01:31;94258.94;;;3.33;56.02
29197;BME280;62796;42.654;23.316;2023-01-28T08:03:56;94260.56;;;3.43;55.23
29197;BME280;62796;42.654;23.316;2023-01-28T08:06:21;94265.75;;;3.50;55.12
29197;BME280;62796;42.654;23.316;2023-01-28T08:08:47;94256.03;;;3.49;54.72
29197;BME280;62796;42.654;23.316;2023-01-28T08:11:12;94270.66;;;3.55;54.63
29197;BME280;62796;42.654;23.316;2023-01-28T08:13:38;94269.19;;;3.63;54.50
29197;BME280;62796;42.654;23.316;2023-01-28T08:16:04;94272.00;;;3.72;54.71
29197;BME280;62796;42.654;23.316;2023-01-28T08:18:29;94267.75;;;3.80;54.57
29197;BME280;62796;42.654;23.316;2023-01-28T08:20:56;94271.69;;;3.79;54.39
29197;BME280;62796;42.654;23.316;2023-01-28T08:23:22;94274.25;;;3.96;54.39
29197;BME280;62796;42.654;23.316;2023-01-28T08:25:47;94275.78;;;3.97;53.88
29197;BME280;62796;42.654;23.316;2023-01-28T08:28:14;94265.13;;;3.99;53.80
29197;BME280;62796;42.654;23.316;2023-01-28T08:30:41;94278.56;;;4.06;53.26
29197;BME280;62796;42.654;23.316;2023-01-28T08:33:08;94286.28;;;3.98;53.34
29197;BME280;62796;42.654;23.316;2023-01-28T08:35:35;94280.75;;;3.89;53.07
29197;BME280;62796;42.654;23.316;2023-01-28T08:38:02;94274.25;;;3.96;53.82
29197;BME280;62796;42.654;23.316;2023-01-28T08:40:28;94282.19;;;4.03;53.50
29197;BME280;62796;42.654;23.316;2023-01-28T08:42:54;94275.94;;;4.02;53.48
29197;BME280;62796;42.654;23.316;2023-01-28T08:45:21;94279.03;;;4.13;53.31
29197;BME280;62796;42.654;23.316;2023-01-28T08:50:18;94272.78;;;4.13;53.34
29197;BME280;62796;42.654;23.316;2023-01-28T08:52:44;94280.16;;;4.25;52.95
29197;BME280;62796;42.654;23.316;2023-01-28T08:55:11;94284.91;;;4.33;53.23
29197;BME280;62796;42.654;23.316;2023-01-28T08:57:37;94285.72;;;4.43;52.88
29197;BME280;62796;42.654;23.316;2023-01-28T09:00:03;94286.00;;;4.36;52.39
29197;BME280;62796;42.654;23.316;2023-01-28T09:02:29;94280.69;;;4.41;52.65
29197;BME280;62796;42.654;23.316;2023-01-28T09:04:54;94272.25;;;4.27;52.13
29197;BME280;62796;42.654;23.316;2023-01-28T09:07:20;94278.47;;;4.27;52.09
29197;BME280;62796;42.654;23.316;2023-01-28T09:09:45;94279.25;;;4.28;52.25
29197;BME280;62796;42.654;23.316;2023-01-28T09:12:10;94285.69;;;4.34;51.91
29197;BME280;62796;42.654;23.316;2023-01-28T09:14:36;94291.78;;;4.38;52.66
29197;BME280;62796;42.654;23.316;2023-01-28T09:17:03;94293.03;;;4.46;52.57
29197;BME280;62796;42.654;23.316;2023-01-28T09:19:28;94290.28;;;4.46;51.88
29197;BME280;62796;42.654;23.316;2023-01-28T09:21:54;94284.03;;;4.45;52.39
29197;BME280;62796;42.654;23.316;2023-01-28T09:24:19;94286.94;;;4.51;51.81
29197;BME280;62796;42.654;23.316;2023-01-28T09:26:47;94296.97;;;4.36;52.25
29197;BME280;62796;42.654;23.316;2023-01-28T09:29:13;94296.34;;;4.32;52.54
29197;BME280;62796;42.654;23.316;2023-01-28T09:31:39;94287.19;;;4.26;52.55
29197;BME280;62796;42.654;23.316;2023-01-28T09:34:05;94292.03;;;4.22;53.31
29197;BME280;62796;42.654;23.316;2023-01-28T09:36:30;94281.34;;;4.15;53.06
29197;BME280;62796;42.654;23.316;2023-01-28T09:38:57;94280.13;;;4.16;53.20
29197;BME280;62796;42.654;23.316;2023-01-28T09:46:25;94280.06;;;4.07;53.70
29197;BME280;62796;42.654;23.316;2023-01-28T09:48:53;94293.72;;;3.98;53.96
29197;BME280;62796;42.654;23.316;2023-01-28T09:51:41;94286.75;;;3.97;53.67
29197;BME280;62796;42.654;23.316;2023-01-28T09:57:53;94291.38;;;4.09;54.26
29197;BME280;62796;42.654;23.316;2023-01-28T10:00:14;94285.06;;;4.30;53.80
29197;BME280;62796;42.654;23.316;2023-01-28T10:08:38;94278.09;;;4.07;54.02
29197;BME280;62796;42.654;23.316;2023-01-28T10:11:26;94270.28;;;3.97;54.06
29197;BME280;62796;42.654;23.316;2023-01-28T10:16:49;94276.09;;;3.77;54.50
29197;BME280;62796;42.654;23.316;2023-01-28T10:19:22;94273.50;;;3.73;55.11
29197;BME280;62796;42.654;23.316;2023-01-28T10:21:55;94278.06;;;3.76;55.23
29197;BME280;62796;42.654;23.316;2023-01-28T10:24:30;94279.03;;;3.82;55.11
29197;BME280;62796;42.654;23.316;2023-01-28T10:26:59;94283.81;;;3.91;55.27
29197;BME280;62796;42.654;23.316;2023-01-28T10:29:31;94276.88;;;3.77;54.90
29197;BME280;62796;42.654;23.316;2023-01-28T10:34:50;94281.09;;;3.69;55.53
29197;BME280;62796;42.654;23.316;2023-01-28T10:37:16;94286.50;;;3.82;55.39
29197;BME280;62796;42.654;23.316;2023-01-28T10:39:42;94280.88;;;3.85;55.29
29197;BME280;62796;42.654;23.316;2023-01-28T10:42:20;94283.56;;;3.76;55.06
29197;BME280;62796;42.654;23.316;2023-01-28T10:44:47;94281.72;;;3.73;55.45
29197;BME280;62796;42.654;23.316;2023-01-28T10:47:16;94278.34;;;3.69;55.44
29197;BME280;62796;42.654;23.316;2023-01-28T10:49:48;94273.25;;;3.80;55.36
29197;BME280;62796;42.654;23.316;2023-01-28T10:52:17;94269.19;;;3.85;55.07
29197;BME280;62796;42.654;23.316;2023-01-28T10:54:43;94269.34;;;3.90;55.10
29197;BME280;62796;42.654;23.316;2023-01-28T10:57:11;94278.69;;;4.02;55.08
29197;BME280;62796;42.654;23.316;2023-01-28T10:59:38;94272.66;;;4.16;55.01
29197;BME280;62796;42.654;23.316;2023-01-28T11:02:27;94273.91;;;4.24;55.00
29197;BME280;62796;42.654;23.316;2023-01-28T11:05:23;94276.22;;;4.26;54.44
29197;BME280;62796;42.654;23.316;2023-01-28T11:08:14;94275.81;;;4.45;53.96
29197;BME280;62796;42.654;23.316;2023-01-28T11:10:40;94274.50;;;4.59;53.19
29197;BME280;62796;42.654;23.316;2023-01-28T11:13:16;94265.97;;;4.66;52.17
29197;BME280;62796;42.654;23.316;2023-01-28T11:15:50;94263.50;;;4.50;52.46
29197;BME280;62796;42.654;23.316;2023-01-28T11:18:22;94260.66;;;4.63;52.31
29197;BME280;62796;42.654;23.316;2023-01-28T11:20:57;94272.72;;;4.74;51.85
29197;BME280;62796;42.654;23.316;2023-01-28T11:23:28;94256.66;;;4.64;52.40
29197;BME280;62796;42.654;23.316;2023-01-28T11:26:17;94267.53;;;4.76;52.06
29197;BME280;62796;42.654;23.316;2023-01-28T11:28:44;94262.81;;;4.77;51.82
29197;BME280;62796;42.654;23.316;2023-01-28T11:31:13;94268.28;;;4.77;52.31
29197;BME280;62796;42.654;23.316;2023-01-28T11:33:49;94257.91;;;4.81;51.63
29197;BME280;62796;42.654;23.316;2023-01-28T11:36:18;94268.72;;;4.75;51.49
29197;BME280;62796;42.654;23.316;2023-01-28T11:38:52;94272.84;;;4.71;51.02
29197;BME280;62796;42.654;23.316;2023-01-28T11:41:31;94260.81;;;4.77;51.24
29197;BME280;62796;42.654;23.316;2023-01-28T11:43:58;94261.44;;;4.81;50.96
29197;BME280;62796;42.654;23.316;2023-01-28T12:02:47;94252.28;;;4.75;51.19
29197;BME280;62796;42.654;23.316;2023-01-28T12:08:21;94259.31;;;4.85;50.46
29197;BME280;62796;42.654;23.316;2023-01-28T12:13:53;94264.66;;;4.89;51.13
29197;BME280;62796;42.654;23.316;2023-01-28T12:17:02;94265.97;;;4.66;50.84
29197;BME280;62796;42.654;23.316;2023-01-28T12:22:29;94266.09;;;4.54;51.52
29197;BME280;62796;42.654;23.316;2023-01-28T12:43:19;94269.25;;;4.43;52.36
29197;BME280;62796;42.654;23.316;2023-01-28T12:45:54;94279.97;;;4.50;52.21
29197;BME280;62796;42.654;23.316;2023-01-28T12:51:53;94285.31;;;4.54;51.87
29197;BME280;62796;42.654;23.316;2023-01-28T12:54:28;94288.16;;;4.41;52.15
29197;BME280;62796;42.654;23.316;2023-01-28T12:56:57;94286.63;;;4.40;52.22
29197;BME280;62796;42.654;23.316;2023-01-28T12:59:36;94289.53;;;4.45;52.28
29197;BME280;62796;42.654;23.316;2023-01-28T13:04:47;94288.22;;;4.59;51.66
29197;BME280;62796;42.654;23.316;2023-01-28T13:10:12;94286.63;;;4.40;51.95
29197;BME280;62796;42.654;23.316;2023-01-28T13:12:42;94297.31;;;4.47;51.51
29197;BME280;62796;42.654;23.316;2023-01-28T13:15:12;94296.69;;;4.43;51.67
29197;BME280;62796;42.654;23.316;2023-01-28T13:17:39;94300.66;;;4.42;51.47
29197;BME280;62796;42.654;23.316;2023-01-28T13:20:50;94302.78;;;4.47;51.71
29197;BME280;62796;42.654;23.316;2023-01-28T13:23:41;94304.63;;;4.50;52.15
29197;BME280;62796;42.654;23.316;2023-01-28T13:26:23;94307.84;;;4.58;52.08
29197;BME280;62796;42.654;23.316;2023-01-28T13:28:51;94314.28;;;4.64;52.11
29197;BME280;62796;42.654;23.316;2023-01-28T13:31:20;94310.50;;;4.70;52.06
29197;BME280;62796;42.654;23.316;2023-01-28T13:41:52;94308.06;;;4.81;51.76
29197;BME280;62796;42.654;23.316;2023-01-28T13:44:32;94317.56;;;4.89;51.61
29197;BME280;62796;42.654;23.316;2023-01-28T13:49:37;94325.13;;;4.76;51.52
29197;BME280;62796;42.654;23.316;2023-01-28T13:54:43;94333.63;;;4.69;51.63
29197;BME280;62796;42.654;23.316;2023-01-28T13:57:41;94331.50;;;4.64;51.73
29197;BME280;62796;42.654;23.316;2023-01-28T14:00:20;94339.69;;;4.55;52.12
29197;BME280;62796;42.654;23.316;2023-01-28T14:09:00;94346.59;;;4.60;52.73
29197;BME280;62796;42.654;23.316;2023-01-28T14:12:00;94346.59;;;4.60;52.64
29197;BME280;62796;42.654;23.316;2023-01-28T14:17:16;94349.84;;;4.45;52.73
29197;BME280;62796;42.654;23.316;2023-01-28T14:19:45;94364.63;;;4.48;52.55
29197;BME280;62796;42.654;23.316;2023-01-28T14:22:16;94361.59;;;4.46;52.21
29197;BME280;62796;42.654;23.316;2023-01-28T14:24:43;94354.41;;;4.39;52.51
29197;BME280;62796;42.654;23.316;2023-01-28T14:27:35;94375.00;;;4.44;52.09
29197;BME280;62796;42.654;23.316;2023-01-28T14:30:21;94366.59;;;4.38;52.00
29197;BME280;62796;42.654;23.316;2023-01-28T14:32:53;94349.03;;;4.27;52.11
29197;BME280;62796;42.654;23.316;2023-01-28T14:35:27;94369.91;;;4.33;51.99
29197;BME280;62796;42.654;23.316;2023-01-28T14:37:53;94366.84;;;4.31;52.34
29197;BME280;62796;42.654;23.316;2023-01-28T14:40:19;94371.25;;;4.29;52.32
29197;BME280;62796;42.654;23.316;2023-01-28T14:42:47;94369.66;;;4.19;52.78
29197;BME280;62796;42.654;23.316;2023-01-28T14:52:56;94390.81;;;4.18;53.00
29197;BME280;62796;42.654;23.316;2023-01-28T14:55:35;94382.69;;;4.06;53.45
29197;BME280;62796;42.654;23.316;2023-01-28T14:58:09;94380.31;;;3.95;53.61
29197;BME280;62796;42.654;23.316;2023-01-28T15:00:38;94384.84;;;3.89;54.21
29197;BME280;62796;42.654;23.316;2023-01-28T15:03:17;94384.09;;;3.88;53.99
29197;BME280;62796;42.654;23.316;2023-01-28T15:05:42;94386.19;;;3.84;54.37
29197;BME280;62796;42.654;23.316;2023-01-28T15:08:18;94381.94;;;3.83;54.07
29197;BME280;62796;42.654;23.316;2023-01-28T15:10:44;94390.72;;;3.78;54.21
29197;BME280;62796;42.654;23.316;2023-01-28T15:13:15;94391.34;;;3.82;54.64
29197;BME280;62796;42.654;23.316;2023-01-28T15:15:47;94390.44;;;3.85;54.39
29197;BME280;62796;42.654;23.316;2023-01-28T15:18:34;94392.00;;;3.86;54.62
29197;BME280;62796;42.654;23.316;2023-01-28T15:21:01;94391.22;;;3.86;53.98
29197;BME280;62796;42.654;23.316;2023-01-28T15:23:31;94389.44;;;3.70;54.10
29197;BME280;62796;42.654;23.316;2023-01-28T15:25:58;94403.38;;;3.63;54.33